KAPF/APF METAR and TAF weather

Enter ICAO airport designator
Station Type Date Time Source
KAPF METAR 2020/03/29 19:53 UTC NOAA

KAPF 291953Z 22015G21KT 10SM SCT030 30/22 A3008 RMK AO2 SLP186 T03000222 $


Station Type Date Time Source
KAPF Decoded METAR 2020/03/29 19:53 UTC NOAA

NAPLES MUNICIPAL AIRPORT, FL, United States (KAPF) 26-09N 081-46W
Mar 29, 2020 - 03:53 PM EDT / 2020.03.29 1953 UTC
Wind: from the SW (220 degrees) at 17 MPH (15 KT) gusting to 24 MPH (21 KT):0
Visibility: 10 mile(s):0
Sky conditions: partly cloudy
Temperature: 86.0 F (30.0 C)
Heat index: 92.1 F (33.4 C):1
Dew Point: 72.0 F (22.2 C)
Relative Humidity: 63%
Pressure (altimeter): 30.08 in. Hg (1018 hPa)
ob: KAPF 291953Z 22015G21KT 10SM SCT030 30/22 A3008 RMK AO2 SLP186 T03000222
cycle: 20

Station Type Date Time Source
KAPF TAF 2020/03/29 18:24 UTC NOAA

TAF KAPF 291722Z 2918/3018 16008KT P6SM FEW030
FM291900 21012KT P6SM SCT030
FM300000 VRB03KT P6SM FEW030
FM301400 12007KT P6SM SCT030

Example: see airport list